sensor_id;sensor_type;location;lat;lon;timestamp;P1;durP1;ratioP1;P2;durP2;ratioP2
37097;SDS011;63608;49.572;12.348;2023-09-30T00:01:53;11.40;;;2.77;;
37097;SDS011;63608;49.572;12.348;2023-09-30T00:03:58;8.47;;;3.20;;
37097;SDS011;63608;49.572;12.348;2023-09-30T00:06:03;3.57;;;2.27;;
37097;SDS011;63608;49.572;12.348;2023-09-30T00:08:09;6.47;;;2.87;;
37097;SDS011;63608;49.572;12.348;2023-09-30T00:10:16;10.33;;;2.97;;
37097;SDS011;63608;49.572;12.348;2023-09-30T00:12:18;4.00;;;3.00;;
37097;SDS011;63608;49.572;12.348;2023-09-30T00:14:19;8.10;;;3.20;;
37097;SDS011;63608;49.572;12.348;2023-09-30T00:16:23;14.93;;;3.23;;
37097;SDS011;63608;49.572;12.348;2023-09-30T00:18:30;7.43;;;3.43;;
37097;SDS011;63608;49.572;12.348;2023-09-30T00:20:34;11.33;;;2.87;;
37097;SDS011;63608;49.572;12.348;2023-09-30T00:22:36;8.03;;;2.80;;
37097;SDS011;63608;49.572;12.348;2023-09-30T00:24:38;7.67;;;3.40;;
37097;SDS011;63608;49.572;12.348;2023-09-30T00:26:41;7.83;;;2.70;;
37097;SDS011;63608;49.572;12.348;2023-09-30T00:28:43;10.33;;;2.90;;
37097;SDS011;63608;49.572;12.348;2023-09-30T00:30:51;7.83;;;2.80;;
37097;SDS011;63608;49.572;12.348;2023-09-30T00:32:58;3.70;;;2.60;;
37097;SDS011;63608;49.572;12.348;2023-09-30T00:35:03;14.93;;;3.80;;
37097;SDS011;63608;49.572;12.348;2023-09-30T00:37:09;7.60;;;3.10;;
37097;SDS011;63608;49.572;12.348;2023-09-30T00:39:11;12.90;;;3.70;;
37097;SDS011;63608;49.572;12.348;2023-09-30T00:41:13;7.27;;;2.93;;
37097;SDS011;63608;49.572;12.348;2023-09-30T00:43:19;6.70;;;2.93;;
37097;SDS011;63608;49.572;12.348;2023-09-30T00:45:20;5.97;;;2.70;;
37097;SDS011;63608;49.572;12.348;2023-09-30T00:47:22;5.40;;;2.90;;
37097;SDS011;63608;49.572;12.348;2023-09-30T00:49:27;5.50;;;2.70;;
37097;SDS011;63608;49.572;12.348;2023-09-30T00:51:32;11.20;;;3.13;;
37097;SDS011;63608;49.572;12.348;2023-09-30T00:53:38;7.40;;;3.00;;
37097;SDS011;63608;49.572;12.348;2023-09-30T00:55:40;14.13;;;2.93;;
37097;SDS011;63608;49.572;12.348;2023-09-30T00:57:43;6.83;;;2.90;;
37097;SDS011;63608;49.572;12.348;2023-09-30T00:59:52;7.53;;;3.13;;
37097;SDS011;63608;49.572;12.348;2023-09-30T01:01:58;7.90;;;2.60;;
37097;SDS011;63608;49.572;12.348;2023-09-30T01:04:01;7.80;;;3.20;;
37097;SDS011;63608;49.572;12.348;2023-09-30T01:06:06;8.93;;;2.70;;
37097;SDS011;63608;49.572;12.348;2023-09-30T01:08:10;12.00;;;3.13;;
37097;SDS011;63608;49.572;12.348;2023-09-30T01:10:12;5.17;;;2.90;;
37097;SDS011;63608;49.572;12.348;2023-09-30T01:12:15;5.70;;;2.60;;
37097;SDS011;63608;49.572;12.348;2023-09-30T01:14:24;5.87;;;2.90;;
37097;SDS011;63608;49.572;12.348;2023-09-30T01:16:30;7.73;;;2.80;;
37097;SDS011;63608;49.572;12.348;2023-09-30T01:18:33;5.57;;;2.70;;
37097;SDS011;63608;49.572;12.348;2023-09-30T01:20:35;9.90;;;2.83;;
37097;SDS011;63608;49.572;12.348;2023-09-30T01:22:39;8.47;;;2.60;;
37097;SDS011;63608;49.572;12.348;2023-09-30T01:24:41;4.70;;;2.27;;
37097;SDS011;63608;49.572;12.348;2023-09-30T01:26:46;5.10;;;3.37;;
37097;SDS011;63608;49.572;12.348;2023-09-30T01:28:49;5.20;;;2.80;;
37097;SDS011;63608;49.572;12.348;2023-09-30T01:30:52;8.40;;;3.03;;
37097;SDS011;63608;49.572;12.348;2023-09-30T01:32:54;10.37;;;2.50;;
37097;SDS011;63608;49.572;12.348;2023-09-30T01:34:56;13.37;;;2.53;;
37097;SDS011;63608;49.572;12.348;2023-09-30T01:36:59;6.50;;;2.93;;
37097;SDS011;63608;49.572;12.348;2023-09-30T01:39:06;12.80;;;2.70;;
37097;SDS011;63608;49.572;12.348;2023-09-30T01:41:10;7.47;;;3.07;;
37097;SDS011;63608;49.572;12.348;2023-09-30T01:43:13;3.23;;;2.70;;
37097;SDS011;63608;49.572;12.348;2023-09-30T01:45:14;6.93;;;2.83;;
37097;SDS011;63608;49.572;12.348;2023-09-30T01:47:16;13.23;;;3.27;;
37097;SDS011;63608;49.572;12.348;2023-09-30T01:49:22;12.73;;;3.00;;
37097;SDS011;63608;49.572;12.348;2023-09-30T01:51:26;8.70;;;2.00;;
37097;SDS011;63608;49.572;12.348;2023-09-30T01:53:30;4.60;;;2.87;;
37097;SDS011;63608;49.572;12.348;2023-09-30T01:55:34;7.17;;;3.30;;
37097;SDS011;63608;49.572;12.348;2023-09-30T01:57:40;6.60;;;2.33;;
37097;SDS011;63608;49.572;12.348;2023-09-30T01:59:53;3.67;;;2.27;;
37097;SDS011;63608;49.572;12.348;2023-09-30T02:01:55;6.93;;;2.70;;
37097;SDS011;63608;49.572;12.348;2023-09-30T02:03:59;5.37;;;2.50;;
37097;SDS011;63608;49.572;12.348;2023-09-30T02:06:02;4.30;;;3.03;;
37097;SDS011;63608;49.572;12.348;2023-09-30T02:08:05;7.03;;;2.40;;
37097;SDS011;63608;49.572;12.348;2023-09-30T02:10:06;6.00;;;3.10;;
37097;SDS011;63608;49.572;12.348;2023-09-30T02:12:12;7.13;;;2.50;;
37097;SDS011;63608;49.572;12.348;2023-09-30T02:14:14;8.43;;;2.60;;
37097;SDS011;63608;49.572;12.348;2023-09-30T02:16:17;6.73;;;2.53;;
37097;SDS011;63608;49.572;12.348;2023-09-30T02:18:20;4.50;;;2.70;;
37097;SDS011;63608;49.572;12.348;2023-09-30T02:20:22;2.73;;;2.37;;
37097;SDS011;63608;49.572;12.348;2023-09-30T02:22:26;4.30;;;2.20;;
37097;SDS011;63608;49.572;12.348;2023-09-30T02:24:28;6.47;;;2.83;;
37097;SDS011;63608;49.572;12.348;2023-09-30T02:26:33;5.50;;;2.30;;
37097;SDS011;63608;49.572;12.348;2023-09-30T02:28:37;3.53;;;2.60;;
37097;SDS011;63608;49.572;12.348;2023-09-30T02:30:40;5.03;;;2.50;;
37097;SDS011;63608;49.572;12.348;2023-09-30T02:32:42;3.60;;;2.33;;
37097;SDS011;63608;49.572;12.348;2023-09-30T02:34:46;5.50;;;2.30;;
37097;SDS011;63608;49.572;12.348;2023-09-30T02:36:49;3.67;;;2.13;;
37097;SDS011;63608;49.572;12.348;2023-09-30T02:38:55;3.40;;;2.37;;
37097;SDS011;63608;49.572;12.348;2023-09-30T02:40:58;4.57;;;2.63;;
37097;SDS011;63608;49.572;12.348;2023-09-30T02:43:03;7.30;;;2.43;;
37097;SDS011;63608;49.572;12.348;2023-09-30T02:45:06;2.33;;;2.13;;
37097;SDS011;63608;49.572;12.348;2023-09-30T02:47:09;6.70;;;2.30;;
37097;SDS011;63608;49.572;12.348;2023-09-30T02:49:12;5.20;;;2.43;;
37097;SDS011;63608;49.572;12.348;2023-09-30T02:51:16;4.67;;;1.93;;
37097;SDS011;63608;49.572;12.348;2023-09-30T02:53:18;2.60;;;2.13;;
37097;SDS011;63608;49.572;12.348;2023-09-30T02:55:20;4.73;;;2.40;;
37097;SDS011;63608;49.572;12.348;2023-09-30T02:57:23;2.40;;;2.20;;
37097;SDS011;63608;49.572;12.348;2023-09-30T02:59:24;5.30;;;2.40;;
37097;SDS011;63608;49.572;12.348;2023-09-30T03:01:29;5.30;;;2.20;;
37097;SDS011;63608;49.572;12.348;2023-09-30T03:03:34;5.10;;;2.73;;
37097;SDS011;63608;49.572;12.348;2023-09-30T03:05:39;2.90;;;1.93;;
37097;SDS011;63608;49.572;12.348;2023-09-30T03:07:41;5.80;;;2.27;;
37097;SDS011;63608;49.572;12.348;2023-09-30T03:09:45;7.13;;;2.30;;
37097;SDS011;63608;49.572;12.348;2023-09-30T03:11:48;3.50;;;2.03;;
37097;SDS011;63608;49.572;12.348;2023-09-30T03:13:52;4.03;;;1.73;;
37097;SDS011;63608;49.572;12.348;2023-09-30T03:15:55;3.83;;;2.30;;
37097;SDS011;63608;49.572;12.348;2023-09-30T03:18:01;4.50;;;1.93;;
37097;SDS011;63608;49.572;12.348;2023-09-30T03:20:04;4.30;;;2.50;;
37097;SDS011;63608;49.572;12.348;2023-09-30T03:22:12;2.20;;;2.00;;
37097;SDS011;63608;49.572;12.348;2023-09-30T03:24:15;3.27;;;2.07;;
37097;SDS011;63608;49.572;12.348;2023-09-30T03:26:18;2.63;;;2.00;;
37097;SDS011;63608;49.572;12.348;2023-09-30T03:28:23;7.33;;;2.40;;
37097;SDS011;63608;49.572;12.348;2023-09-30T03:30:25;3.87;;;2.23;;
37097;SDS011;63608;49.572;12.348;2023-09-30T03:32:27;4.77;;;1.70;;
37097;SDS011;63608;49.572;12.348;2023-09-30T03:34:32;4.43;;;2.70;;
37097;SDS011;63608;49.572;12.348;2023-09-30T03:36:40;3.63;;;2.03;;
37097;SDS011;63608;49.572;12.348;2023-09-30T03:38:44;7.97;;;2.10;;
37097;SDS011;63608;49.572;12.348;2023-09-30T03:40:47;4.17;;;1.97;;
37097;SDS011;63608;49.572;12.348;2023-09-30T03:42:50;2.60;;;1.80;;
37097;SDS011;63608;49.572;12.348;2023-09-30T03:44:53;3.73;;;2.07;;
37097;SDS011;63608;49.572;12.348;2023-09-30T03:46:55;4.80;;;2.50;;
37097;SDS011;63608;49.572;12.348;2023-09-30T03:48:59;5.27;;;1.63;;
37097;SDS011;63608;49.572;12.348;2023-09-30T03:51:09;2.80;;;1.60;;
37097;SDS011;63608;49.572;12.348;2023-09-30T03:53:17;3.67;;;2.00;;
37097;SDS011;63608;49.572;12.348;2023-09-30T03:55:20;2.40;;;1.73;;
37097;SDS011;63608;49.572;12.348;2023-09-30T03:57:24;4.03;;;1.87;;
37097;SDS011;63608;49.572;12.348;2023-09-30T03:59:28;7.43;;;2.30;;
37097;SDS011;63608;49.572;12.348;2023-09-30T04:01:31;4.50;;;1.60;;
37097;SDS011;63608;49.572;12.348;2023-09-30T04:03:34;2.20;;;1.40;;
37097;SDS011;63608;49.572;12.348;2023-09-30T04:05:39;3.40;;;1.70;;
37097;SDS011;63608;49.572;12.348;2023-09-30T04:07:43;4.53;;;1.63;;
37097;SDS011;63608;49.572;12.348;2023-09-30T04:09:47;2.10;;;1.83;;
37097;SDS011;63608;49.572;12.348;2023-09-30T04:11:48;3.97;;;1.80;;
37097;SDS011;63608;49.572;12.348;2023-09-30T04:13:52;6.27;;;2.10;;
37097;SDS011;63608;49.572;12.348;2023-09-30T04:15:56;5.70;;;1.93;;
37097;SDS011;63608;49.572;12.348;2023-09-30T04:18:01;2.33;;;1.40;;
37097;SDS011;63608;49.572;12.348;2023-09-30T04:20:06;7.03;;;2.10;;
37097;SDS011;63608;49.572;12.348;2023-09-30T04:22:10;3.30;;;2.20;;
37097;SDS011;63608;49.572;12.348;2023-09-30T04:24:15;3.87;;;1.83;;
37097;SDS011;63608;49.572;12.348;2023-09-30T04:26:19;3.07;;;2.07;;
37097;SDS011;63608;49.572;12.348;2023-09-30T04:28:21;5.00;;;1.67;;
37097;SDS011;63608;49.572;12.348;2023-09-30T04:30:24;9.30;;;1.50;;
37097;SDS011;63608;49.572;12.348;2023-09-30T04:32:26;1.73;;;1.60;;
37097;SDS011;63608;49.572;12.348;2023-09-30T04:34:29;1.90;;;1.47;;
37097;SDS011;63608;49.572;12.348;2023-09-30T04:36:32;3.20;;;2.03;;
37097;SDS011;63608;49.572;12.348;2023-09-30T04:38:36;4.80;;;1.57;;
37097;SDS011;63608;49.572;12.348;2023-09-30T04:40:39;5.43;;;1.87;;
37097;SDS011;63608;49.572;12.348;2023-09-30T04:42:44;5.33;;;1.77;;
37097;SDS011;63608;49.572;12.348;2023-09-30T04:44:46;4.17;;;2.10;;
37097;SDS011;63608;49.572;12.348;2023-09-30T04:46:51;2.50;;;1.90;;
37097;SDS011;63608;49.572;12.348;2023-09-30T04:48:53;1.90;;;1.73;;
37097;SDS011;63608;49.572;12.348;2023-09-30T04:50:55;3.43;;;2.20;;
37097;SDS011;63608;49.572;12.348;2023-09-30T04:53:00;2.57;;;2.37;;
37097;SDS011;63608;49.572;12.348;2023-09-30T04:55:02;16.17;;;2.13;;
37097;SDS011;63608;49.572;12.348;2023-09-30T04:57:07;8.37;;;2.10;;
37097;SDS011;63608;49.572;12.348;2023-09-30T04:59:10;2.60;;;1.70;;
37097;SDS011;63608;49.572;12.348;2023-09-30T05:01:12;3.90;;;2.23;;
37097;SDS011;63608;49.572;12.348;2023-09-30T05:03:14;3.60;;;1.83;;
37097;SDS011;63608;49.572;12.348;2023-09-30T05:05:16;5.27;;;2.57;;
37097;SDS011;63608;49.572;12.348;2023-09-30T05:07:20;4.10;;;2.77;;
37097;SDS011;63608;49.572;12.348;2023-09-30T05:09:23;6.83;;;2.50;;
37097;SDS011;63608;49.572;12.348;2023-09-30T05:11:26;3.03;;;1.90;;
37097;SDS011;63608;49.572;12.348;2023-09-30T05:13:30;7.50;;;2.63;;
37097;SDS011;63608;49.572;12.348;2023-09-30T05:15:34;8.17;;;3.10;;
37097;SDS011;63608;49.572;12.348;2023-09-30T05:17:36;2.33;;;2.03;;
37097;SDS011;63608;49.572;12.348;2023-09-30T05:19:37;14.63;;;3.03;;
37097;SDS011;63608;49.572;12.348;2023-09-30T05:21:39;3.90;;;2.50;;
37097;SDS011;63608;49.572;12.348;2023-09-30T05:23:45;8.60;;;3.03;;
37097;SDS011;63608;49.572;12.348;2023-09-30T05:25:51;1.93;;;1.50;;
37097;SDS011;63608;49.572;12.348;2023-09-30T05:27:53;1.70;;;1.60;;
37097;SDS011;63608;49.572;12.348;2023-09-30T05:30:02;1.70;;;1.50;;
37097;SDS011;63608;49.572;12.348;2023-09-30T05:32:06;1.40;;;1.30;;
37097;SDS011;63608;49.572;12.348;2023-09-30T05:34:07;5.47;;;1.77;;
37097;SDS011;63608;49.572;12.348;2023-09-30T05:36:09;2.80;;;1.47;;
37097;SDS011;63608;49.572;12.348;2023-09-30T05:38:13;1.47;;;1.10;;
37097;SDS011;63608;49.572;12.348;2023-09-30T05:40:15;1.83;;;1.50;;
37097;SDS011;63608;49.572;12.348;2023-09-30T05:42:22;2.70;;;1.33;;
37097;SDS011;63608;49.572;12.348;2023-09-30T05:44:25;4.30;;;1.37;;
37097;SDS011;63608;49.572;12.348;2023-09-30T05:46:29;1.87;;;1.53;;
37097;SDS011;63608;49.572;12.348;2023-09-30T05:48:32;2.13;;;1.40;;
37097;SDS011;63608;49.572;12.348;2023-09-30T05:50:34;1.50;;;1.00;;
37097;SDS011;63608;49.572;12.348;2023-09-30T05:52:38;1.37;;;1.20;;
37097;SDS011;63608;49.572;12.348;2023-09-30T05:54:42;1.00;;;0.80;;
37097;SDS011;63608;49.572;12.348;2023-09-30T05:56:45;1.20;;;1.10;;
37097;SDS011;63608;49.572;12.348;2023-09-30T05:58:49;0.93;;;0.90;;
37097;SDS011;63608;49.572;12.348;2023-09-30T06:00:52;1.43;;;1.00;;
37097;SDS011;63608;49.572;12.348;2023-09-30T06:02:59;1.20;;;0.97;;
37097;SDS011;63608;49.572;12.348;2023-09-30T06:05:04;1.93;;;1.10;;
37097;SDS011;63608;49.572;12.348;2023-09-30T06:07:10;1.00;;;0.90;;
37097;SDS011;63608;49.572;12.348;2023-09-30T06:09:13;0.80;;;0.80;;
37097;SDS011;63608;49.572;12.348;2023-09-30T06:11:20;1.30;;;1.07;;
37097;SDS011;63608;49.572;12.348;2023-09-30T06:13:24;0.90;;;0.80;;
37097;SDS011;63608;49.572;12.348;2023-09-30T06:15:27;1.30;;;1.17;;
37097;SDS011;63608;49.572;12.348;2023-09-30T06:17:32;1.40;;;0.90;;
37097;SDS011;63608;49.572;12.348;2023-09-30T06:19:39;1.00;;;0.70;;
37097;SDS011;63608;49.572;12.348;2023-09-30T06:21:41;1.87;;;1.03;;
37097;SDS011;63608;49.572;12.348;2023-09-30T06:23:47;0.80;;;0.70;;
37097;SDS011;63608;49.572;12.348;2023-09-30T06:25:52;0.70;;;0.70;;
37097;SDS011;63608;49.572;12.348;2023-09-30T06:27:55;0.67;;;0.67;;
37097;SDS011;63608;49.572;12.348;2023-09-30T06:29:56;0.70;;;0.70;;
37097;SDS011;63608;49.572;12.348;2023-09-30T06:32:01;0.90;;;0.70;;
37097;SDS011;63608;49.572;12.348;2023-09-30T06:34:04;0.80;;;0.70;;
37097;SDS011;63608;49.572;12.348;2023-09-30T06:36:11;1.33;;;0.90;;
37097;SDS011;63608;49.572;12.348;2023-09-30T06:38:14;0.80;;;0.80;;
37097;SDS011;63608;49.572;12.348;2023-09-30T06:40:18;0.73;;;0.73;;
37097;SDS011;63608;49.572;12.348;2023-09-30T06:42:27;0.80;;;0.80;;
37097;SDS011;63608;49.572;12.348;2023-09-30T06:44:29;1.00;;;0.90;;
37097;SDS011;63608;49.572;12.348;2023-09-30T06:46:35;0.83;;;0.80;;
37097;SDS011;63608;49.572;12.348;2023-09-30T06:48:38;0.90;;;0.80;;
37097;SDS011;63608;49.572;12.348;2023-09-30T06:50:45;1.90;;;1.07;;
37097;SDS011;63608;49.572;12.348;2023-09-30T06:52:50;0.80;;;0.70;;
37097;SDS011;63608;49.572;12.348;2023-09-30T06:54:52;1.10;;;1.00;;
37097;SDS011;63608;49.572;12.348;2023-09-30T06:56:56;0.80;;;0.70;;
37097;SDS011;63608;49.572;12.348;2023-09-30T06:58:58;1.13;;;0.70;;
37097;SDS011;63608;49.572;12.348;2023-09-30T07:01:01;0.80;;;0.77;;
37097;SDS011;63608;49.572;12.348;2023-09-30T07:03:04;0.80;;;0.80;;
37097;SDS011;63608;49.572;12.348;2023-09-30T07:05:12;1.30;;;0.90;;
37097;SDS011;63608;49.572;12.348;2023-09-30T07:07:24;0.77;;;0.77;;
37097;SDS011;63608;49.572;12.348;2023-09-30T07:09:27;0.77;;;0.77;;
37097;SDS011;63608;49.572;12.348;2023-09-30T07:11:30;0.70;;;0.63;;
37097;SDS011;63608;49.572;12.348;2023-09-30T07:13:44;1.00;;;0.70;;
37097;SDS011;63608;49.572;12.348;2023-09-30T07:15:45;0.70;;;0.60;;
37097;SDS011;63608;49.572;12.348;2023-09-30T07:17:47;0.70;;;0.70;;
37097;SDS011;63608;49.572;12.348;2023-09-30T07:19:48;0.80;;;0.80;;
37097;SDS011;63608;49.572;12.348;2023-09-30T07:21:51;0.80;;;0.70;;
37097;SDS011;63608;49.572;12.348;2023-09-30T07:23:54;0.97;;;0.97;;
37097;SDS011;63608;49.572;12.348;2023-09-30T07:25:58;0.80;;;0.80;;
37097;SDS011;63608;49.572;12.348;2023-09-30T07:28:01;0.80;;;0.80;;
37097;SDS011;63608;49.572;12.348;2023-09-30T07:30:02;1.00;;;0.83;;
37097;SDS011;63608;49.572;12.348;2023-09-30T07:32:07;0.77;;;0.77;;
37097;SDS011;63608;49.572;12.348;2023-09-30T07:34:09;0.70;;;0.70;;
37097;SDS011;63608;49.572;12.348;2023-09-30T07:36:13;1.20;;;1.10;;
37097;SDS011;63608;49.572;12.348;2023-09-30T07:38:16;0.70;;;0.70;;
37097;SDS011;63608;49.572;12.348;2023-09-30T07:40:19;0.80;;;0.70;;
37097;SDS011;63608;49.572;12.348;2023-09-30T07:42:24;1.77;;;0.90;;
37097;SDS011;63608;49.572;12.348;2023-09-30T07:44:33;1.00;;;0.90;;
37097;SDS011;63608;49.572;12.348;2023-09-30T07:46:36;0.70;;;0.70;;
37097;SDS011;63608;49.572;12.348;2023-09-30T07:48:39;1.20;;;0.70;;
37097;SDS011;63608;49.572;12.348;2023-09-30T07:50:41;0.77;;;0.70;;
37097;SDS011;63608;49.572;12.348;2023-09-30T07:52:44;1.00;;;0.80;;
37097;SDS011;63608;49.572;12.348;2023-09-30T07:54:46;0.80;;;0.80;;
37097;SDS011;63608;49.572;12.348;2023-09-30T07:56:48;0.80;;;0.80;;
37097;SDS011;63608;49.572;12.348;2023-09-30T07:58:55;0.80;;;0.80;;
37097;SDS011;63608;49.572;12.348;2023-09-30T08:00:57;0.93;;;0.93;;
37097;SDS011;63608;49.572;12.348;2023-09-30T08:03:00;0.80;;;0.70;;
37097;SDS011;63608;49.572;12.348;2023-09-30T08:05:02;1.20;;;0.83;;
37097;SDS011;63608;49.572;12.348;2023-09-30T08:07:06;0.80;;;0.80;;
37097;SDS011;63608;49.572;12.348;2023-09-30T08:09:09;0.80;;;0.70;;
37097;SDS011;63608;49.572;12.348;2023-09-30T08:11:13;0.70;;;0.70;;
37097;SDS011;63608;49.572;12.348;2023-09-30T08:13:15;1.47;;;0.70;;
37097;SDS011;63608;49.572;12.348;2023-09-30T08:15:20;0.80;;;0.80;;
37097;SDS011;63608;49.572;12.348;2023-09-30T08:17:24;0.80;;;0.80;;
37097;SDS011;63608;49.572;12.348;2023-09-30T08:19:27;1.27;;;0.80;;
37097;SDS011;63608;49.572;12.348;2023-09-30T08:21:30;1.00;;;0.90;;
37097;SDS011;63608;49.572;12.348;2023-09-30T08:23:39;1.87;;;0.80;;
37097;SDS011;63608;49.572;12.348;2023-09-30T08:25:43;1.00;;;0.80;;
37097;SDS011;63608;49.572;12.348;2023-09-30T08:27:45;1.67;;;1.00;;
37097;SDS011;63608;49.572;12.348;2023-09-30T08:29:49;0.90;;;0.90;;
37097;SDS011;63608;49.572;12.348;2023-09-30T08:31:53;0.80;;;0.77;;
37097;SDS011;63608;49.572;12.348;2023-09-30T08:33:57;0.93;;;0.80;;
37097;SDS011;63608;49.572;12.348;2023-09-30T08:36:03;0.83;;;0.83;;
37097;SDS011;63608;49.572;12.348;2023-09-30T08:38:19;0.90;;;0.80;;
37097;SDS011;63608;49.572;12.348;2023-09-30T08:40:22;0.80;;;0.80;;
37097;SDS011;63608;49.572;12.348;2023-09-30T08:42:25;1.00;;;0.90;;
37097;SDS011;63608;49.572;12.348;2023-09-30T08:44:32;1.10;;;1.00;;
37097;SDS011;63608;49.572;12.348;2023-09-30T08:46:35;1.23;;;1.00;;
37097;SDS011;63608;49.572;12.348;2023-09-30T08:48:39;1.20;;;1.10;;
37097;SDS011;63608;49.572;12.348;2023-09-30T08:50:40;1.10;;;1.00;;
37097;SDS011;63608;49.572;12.348;2023-09-30T08:52:43;2.07;;;1.23;;
37097;SDS011;63608;49.572;12.348;2023-09-30T08:54:46;1.20;;;1.00;;
37097;SDS011;63608;49.572;12.348;2023-09-30T08:56:49;1.43;;;1.27;;
37097;SDS011;63608;49.572;12.348;2023-09-30T08:58:52;2.43;;;1.70;;
37097;SDS011;63608;49.572;12.348;2023-09-30T09:00:55;1.27;;;1.10;;
37097;SDS011;63608;49.572;12.348;2023-09-30T09:03:01;1.30;;;1.20;;
37097;SDS011;63608;49.572;12.348;2023-09-30T09:05:07;1.80;;;1.60;;
37097;SDS011;63608;49.572;12.348;2023-09-30T09:07:09;1.73;;;1.63;;
37097;SDS011;63608;49.572;12.348;2023-09-30T09:09:14;2.00;;;1.60;;
37097;SDS011;63608;49.572;12.348;2023-09-30T09:11:18;1.53;;;1.43;;
37097;SDS011;63608;49.572;12.348;2023-09-30T09:13:25;2.57;;;1.80;;
37097;SDS011;63608;49.572;12.348;2023-09-30T09:15:32;1.67;;;1.57;;
37097;SDS011;63608;49.572;12.348;2023-09-30T09:17:42;1.63;;;1.47;;
37097;SDS011;63608;49.572;12.348;2023-09-30T09:19:53;2.93;;;1.60;;
37097;SDS011;63608;49.572;12.348;2023-09-30T09:22:02;1.93;;;1.83;;
37097;SDS011;63608;49.572;12.348;2023-09-30T09:24:07;2.00;;;1.80;;
37097;SDS011;63608;49.572;12.348;2023-09-30T09:26:10;1.80;;;1.70;;
37097;SDS011;63608;49.572;12.348;2023-09-30T09:28:11;2.20;;;1.70;;
37097;SDS011;63608;49.572;12.348;2023-09-30T09:30:15;2.33;;;2.13;;
37097;SDS011;63608;49.572;12.348;2023-09-30T09:32:17;2.10;;;1.90;;
37097;SDS011;63608;49.572;12.348;2023-09-30T09:34:22;3.30;;;1.90;;
37097;SDS011;63608;49.572;12.348;2023-09-30T09:36:38;3.07;;;2.40;;
37097;SDS011;63608;49.572;12.348;2023-09-30T09:38:45;1.93;;;1.80;;
37097;SDS011;63608;49.572;12.348;2023-09-30T09:40:58;3.20;;;2.13;;
37097;SDS011;63608;49.572;12.348;2023-09-30T09:43:02;3.00;;;2.00;;
37097;SDS011;63608;49.572;12.348;2023-09-30T09:45:06;1.97;;;1.83;;
37097;SDS011;63608;49.572;12.348;2023-09-30T09:47:09;3.43;;;1.80;;
37097;SDS011;63608;49.572;12.348;2023-09-30T09:49:12;6.67;;;2.17;;
37097;SDS011;63608;49.572;12.348;2023-09-30T09:51:14;2.67;;;2.20;;
37097;SDS011;63608;49.572;12.348;2023-09-30T09:53:17;5.77;;;2.07;;
37097;SDS011;63608;49.572;12.348;2023-09-30T09:55:23;3.77;;;1.80;;
37097;SDS011;63608;49.572;12.348;2023-09-30T09:57:28;4.47;;;2.40;;
37097;SDS011;63608;49.572;12.348;2023-09-30T09:59:32;3.07;;;2.63;;
37097;SDS011;63608;49.572;12.348;2023-09-30T10:01:39;21.53;;;3.00;;
37097;SDS011;63608;49.572;12.348;2023-09-30T10:03:42;5.00;;;2.27;;
37097;SDS011;63608;49.572;12.348;2023-09-30T10:05:44;7.23;;;2.57;;
37097;SDS011;63608;49.572;12.348;2023-09-30T10:07:57;2.37;;;2.17;;
37097;SDS011;63608;49.572;12.348;2023-09-30T10:10:02;2.43;;;2.10;;
37097;SDS011;63608;49.572;12.348;2023-09-30T10:12:08;2.80;;;2.43;;
37097;SDS011;63608;49.572;12.348;2023-09-30T10:14:10;4.73;;;2.87;;
37097;SDS011;63608;49.572;12.348;2023-09-30T10:16:48;4.80;;;2.77;;
37097;SDS011;63608;49.572;12.348;2023-09-30T10:21:11;3.53;;;2.30;;
37097;SDS011;63608;49.572;12.348;2023-09-30T10:23:17;5.83;;;2.87;;
37097;SDS011;63608;49.572;12.348;2023-09-30T10:25:34;5.40;;;2.80;;
37097;SDS011;63608;49.572;12.348;2023-09-30T10:27:40;5.07;;;3.10;;
37097;SDS011;63608;49.572;12.348;2023-09-30T10:29:44;3.63;;;2.47;;
37097;SDS011;63608;49.572;12.348;2023-09-30T10:31:49;3.20;;;2.30;;
37097;SDS011;63608;49.572;12.348;2023-09-30T10:36:25;4.60;;;2.50;;
37097;SDS011;63608;49.572;12.348;2023-09-30T10:38:38;2.30;;;2.10;;
37097;SDS011;63608;49.572;12.348;2023-09-30T10:40:40;2.70;;;2.50;;
37097;SDS011;63608;49.572;12.348;2023-09-30T10:42:47;2.07;;;1.90;;
37097;SDS011;63608;49.572;12.348;2023-09-30T10:44:51;2.63;;;2.40;;
37097;SDS011;63608;49.572;12.348;2023-09-30T10:46:55;2.70;;;2.47;;
37097;SDS011;63608;49.572;12.348;2023-09-30T10:51:36;3.40;;;2.10;;
37097;SDS011;63608;49.572;12.348;2023-09-30T10:53:43;5.03;;;2.30;;
37097;SDS011;63608;49.572;12.348;2023-09-30T10:55:52;3.33;;;2.27;;
37097;SDS011;63608;49.572;12.348;2023-09-30T10:57:59;2.00;;;1.90;;
37097;SDS011;63608;49.572;12.348;2023-09-30T11:00:08;5.30;;;2.20;;
37097;SDS011;63608;49.572;12.348;2023-09-30T11:02:20;2.20;;;2.00;;
37097;SDS011;63608;49.572;12.348;2023-09-30T11:04:22;2.40;;;1.83;;
37097;SDS011;63608;49.572;12.348;2023-09-30T11:06:24;3.20;;;2.30;;
37097;SDS011;63608;49.572;12.348;2023-09-30T11:08:27;4.50;;;2.20;;
37097;SDS011;63608;49.572;12.348;2023-09-30T11:10:31;2.50;;;1.77;;
37097;SDS011;63608;49.572;12.348;2023-09-30T11:12:34;3.20;;;2.57;;
37097;SDS011;63608;49.572;12.348;2023-09-30T11:14:38;2.70;;;2.03;;
37097;SDS011;63608;49.572;12.348;2023-09-30T11:16:42;3.57;;;2.17;;
37097;SDS011;63608;49.572;12.348;2023-09-30T11:18:44;3.40;;;1.93;;
37097;SDS011;63608;49.572;12.348;2023-09-30T11:20:47;4.07;;;2.50;;
37097;SDS011;63608;49.572;12.348;2023-09-30T11:22:50;2.53;;;2.33;;
37097;SDS011;63608;49.572;12.348;2023-09-30T11:24:52;3.40;;;1.93;;
37097;SDS011;63608;49.572;12.348;2023-09-30T11:26:57;2.13;;;1.80;;
37097;SDS011;63608;49.572;12.348;2023-09-30T11:29:05;1.73;;;1.63;;
37097;SDS011;63608;49.572;12.348;2023-09-30T11:31:11;6.57;;;2.17;;
37097;SDS011;63608;49.572;12.348;2023-09-30T11:33:14;3.67;;;2.33;;
37097;SDS011;63608;49.572;12.348;2023-09-30T11:35:22;3.13;;;2.23;;
37097;SDS011;63608;49.572;12.348;2023-09-30T11:37:30;2.07;;;1.37;;
37097;SDS011;63608;49.572;12.348;2023-09-30T11:39:33;2.20;;;2.00;;
37097;SDS011;63608;49.572;12.348;2023-09-30T11:41:36;5.23;;;1.60;;
37097;SDS011;63608;49.572;12.348;2023-09-30T11:43:41;1.90;;;1.40;;
37097;SDS011;63608;49.572;12.348;2023-09-30T11:46:04;2.00;;;1.80;;
37097;SDS011;63608;49.572;12.348;2023-09-30T11:48:22;2.40;;;1.93;;
37097;SDS011;63608;49.572;12.348;2023-09-30T11:50:24;3.30;;;2.30;;
37097;SDS011;63608;49.572;12.348;2023-09-30T11:52:27;2.80;;;2.03;;
37097;SDS011;63608;49.572;12.348;2023-09-30T11:54:31;3.83;;;1.87;;
37097;SDS011;63608;49.572;12.348;2023-09-30T11:56:34;4.63;;;2.20;;
37097;SDS011;63608;49.572;12.348;2023-09-30T11:58:43;2.00;;;1.80;;
37097;SDS011;63608;49.572;12.348;2023-09-30T12:00:53;3.60;;;2.00;;
37097;SDS011;63608;49.572;12.348;2023-09-30T12:02:57;4.23;;;1.93;;
37097;SDS011;63608;49.572;12.348;2023-09-30T12:05:04;3.97;;;2.37;;
37097;SDS011;63608;49.572;12.348;2023-09-30T12:07:11;2.80;;;2.40;;
37097;SDS011;63608;49.572;12.348;2023-09-30T12:09:15;2.80;;;2.33;;
37097;SDS011;63608;49.572;12.348;2023-09-30T12:11:22;3.73;;;1.90;;
37097;SDS011;63608;49.572;12.348;2023-09-30T12:13:26;3.07;;;2.13;;
37097;SDS011;63608;49.572;12.348;2023-09-30T12:15:29;3.67;;;2.10;;
37097;SDS011;63608;49.572;12.348;2023-09-30T12:17:31;2.23;;;1.80;;
37097;SDS011;63608;49.572;12.348;2023-09-30T12:19:39;3.73;;;2.30;;
37097;SDS011;63608;49.572;12.348;2023-09-30T12:21:43;3.57;;;2.47;;
37097;SDS011;63608;49.572;12.348;2023-09-30T12:23:48;4.67;;;2.50;;
37097;SDS011;63608;49.572;12.348;2023-09-30T12:25:51;7.43;;;2.20;;